createdAt,value
2023-02-13T00:00:19.137Z,102806.22
2023-02-13T00:02:45.876Z,102806.59
2023-02-13T00:05:12.516Z,102801.31
2023-02-13T00:07:39.416Z,102810.75
2023-02-13T00:10:06.804Z,102804.44
2023-02-13T00:12:33.548Z,102809.81
2023-02-13T00:15:00.600Z,102808.31
2023-02-13T00:17:27.485Z,102803.63
2023-02-13T00:19:54.092Z,102798.69
2023-02-13T00:22:20.761Z,102796.97
2023-02-13T00:24:47.349Z,102797.78
2023-02-13T00:27:14.236Z,102789.63
2023-02-13T00:29:40.852Z,102795.25
2023-02-13T00:32:07.594Z,102788.13
2023-02-13T00:34:34.375Z,102797.59
2023-02-13T00:37:03.352Z,102793.75
2023-02-13T00:39:30.089Z,102791.19
2023-02-13T00:41:56.692Z,102787.28
2023-02-13T00:44:23.303Z,102782.97
2023-02-13T00:46:49.967Z,102789.22
2023-02-13T00:49:16.997Z,102794.63
2023-02-13T00:51:43.690Z,102787.28
2023-02-13T00:54:10.355Z,102796.34
2023-02-13T00:56:37.225Z,102788.16
2023-02-13T00:59:05.316Z,102788.59
2023-02-13T01:01:32.442Z,102793.50
2023-02-13T01:03:59.928Z,102803.66
2023-02-13T01:06:27.808Z,102789.34
2023-02-13T01:08:54.491Z,102796.03
2023-02-13T01:11:21.223Z,102790.44
2023-02-13T01:13:47.736Z,102794.16
2023-02-13T01:16:17.803Z,102795.25
2023-02-13T01:18:45.333Z,102790.63
2023-02-13T01:21:18.314Z,102784.63
2023-02-13T01:23:46.198Z,102782.31
2023-02-13T01:26:19.438Z,102788.38
2023-02-13T01:28:46.648Z,102788.75
2023-02-13T01:31:13.411Z,102788.22
2023-02-13T01:33:40.121Z,102781.09
2023-02-13T01:36:11.851Z,102781.09
2023-02-13T01:38:38.724Z,102783.66
2023-02-13T01:41:05.673Z,102786.44
2023-02-13T01:43:58.699Z,102782.66
2023-02-13T01:46:35.754Z,102783.81
2023-02-13T01:49:19.560Z,102780.44
2023-02-13T01:51:49.600Z,102773.16
2023-02-13T01:54:23.681Z,102776.53
2023-02-13T01:56:55.332Z,102779.09
2023-02-13T01:59:29.257Z,102766.25
2023-02-13T02:01:58.700Z,102766.78
2023-02-13T02:04:31.891Z,102764.16
2023-02-13T02:07:03.284Z,102765.66
2023-02-13T02:09:37.489Z,102757.75
2023-02-13T02:12:22.474Z,102764.44
2023-02-13T02:14:50.436Z,102763.66
2023-02-13T02:17:18.805Z,102762.00
2023-02-13T02:20:10.386Z,102754.50
2023-02-13T02:22:55.181Z,102755.63
2023-02-13T02:25:24.612Z,102751.41
2023-02-13T02:28:22.550Z,102761.59
2023-02-13T02:31:23.499Z,102759.97
2023-02-13T02:33:59.358Z,102751.03
2023-02-13T02:36:39.929Z,102750.91
2023-02-13T02:39:17.374Z,102750.69
2023-02-13T02:41:58.214Z,102747.59
2023-02-13T02:44:47.857Z,102757.94
2023-02-13T02:48:00.494Z,102753.16
2023-02-13T02:50:35.674Z,102767.91
2023-02-13T02:53:25.149Z,102759.28
2023-02-13T02:56:10.677Z,102754.84
2023-02-13T02:59:06.898Z,102749.16
2023-02-13T03:01:54.633Z,102754.75
2023-02-13T03:04:52.067Z,102752.25
2023-02-13T03:07:19.737Z,102744.38
2023-02-13T03:10:08.624Z,102753.31
2023-02-13T03:13:04.125Z,102750.44
2023-02-13T03:15:31.751Z,102757.31
2023-02-13T03:18:18.007Z,102753.28
2023-02-13T03:21:29.458Z,102747.53
2023-02-13T03:24:22.583Z,102750.94
2023-02-13T03:27:08.923Z,102756.41
2023-02-13T03:30:07.439Z,102751.28
2023-02-13T03:32:59.654Z,102756.09
2023-02-13T03:36:01.665Z,102761.00
2023-02-13T03:38:46.837Z,102760.94
2023-02-13T03:41:20.176Z,102761.63
2023-02-13T03:43:58.839Z,102770.06
2023-02-13T03:46:28.978Z,102770.06
2023-02-13T03:49:15.954Z,102762.00
2023-02-13T03:51:49.235Z,102771.19
2023-02-13T03:54:49.745Z,102767.97
2023-02-13T03:57:39.023Z,102768.53
2023-02-13T04:00:09.389Z,102769.41
2023-02-13T04:02:54.344Z,102768.41
2023-02-13T04:05:25.990Z,102772.41
2023-02-13T04:07:52.769Z,102773.50
2023-02-13T04:10:19.990Z,102770.75
2023-02-13T04:13:09.604Z,102770.78
2023-02-13T04:15:46.571Z,102756.25
2023-02-13T04:18:25.604Z,102768.28
2023-02-13T04:20:52.556Z,102766.34
2023-02-13T04:23:19.834Z,102776.25
2023-02-13T04:25:50.525Z,102770.38
2023-02-13T04:28:17.412Z,102771.84
2023-02-13T04:30:43.997Z,102771.97
2023-02-13T04:33:10.632Z,102773.44
2023-02-13T04:35:37.248Z,102769.56
2023-02-13T04:38:04.679Z,102767.84
2023-02-13T04:40:31.313Z,102773.31
2023-02-13T04:42:58.396Z,102766.41
2023-02-13T04:45:25.064Z,102775.94
2023-02-13T04:47:53.979Z,102770.06
2023-02-13T04:50:21.622Z,102772.34
2023-02-13T04:52:53.049Z,102774.34
2023-02-13T04:55:19.782Z,102768.13
2023-02-13T04:57:46.465Z,102771.38
2023-02-13T05:00:13.540Z,102771.50
2023-02-13T05:02:40.098Z,102769.88
2023-02-13T05:05:06.778Z,102761.16
2023-02-13T05:07:33.299Z,102763.81
2023-02-13T05:09:59.929Z,102765.16
2023-02-13T05:12:26.592Z,102760.91
2023-02-13T05:14:53.410Z,102756.16
2023-02-13T05:17:20.106Z,102764.03
2023-02-13T05:19:46.816Z,102755.31
2023-02-13T05:22:32.192Z,102758.97
2023-02-13T05:24:58.826Z,102769.53
2023-02-13T05:27:25.408Z,102769.97
2023-02-13T05:29:52.137Z,102761.00
2023-02-13T05:32:18.845Z,102756.22
2023-02-13T05:34:45.594Z,102752.53
2023-02-13T05:37:12.321Z,102757.78
2023-02-13T05:39:39.072Z,102756.72
2023-02-13T05:42:05.927Z,102744.28
2023-02-13T05:44:32.851Z,102748.91
2023-02-13T05:46:59.629Z,102751.94
2023-02-13T05:49:26.242Z,102748.41
2023-02-13T05:51:52.849Z,102757.16
2023-02-13T05:54:19.469Z,102758.81
2023-02-13T05:56:46.844Z,102756.44
2023-02-13T05:59:13.941Z,102757.81
2023-02-13T06:01:40.836Z,102758.88
2023-02-13T06:04:07.652Z,102760.34
2023-02-13T06:06:34.335Z,102760.06
2023-02-13T06:09:01.117Z,102760.38
2023-02-13T06:11:27.655Z,102757.50
2023-02-13T06:13:54.284Z,102758.09
2023-02-13T06:16:21.067Z,102757.00
2023-02-13T06:18:47.912Z,102754.91
2023-02-13T06:21:14.534Z,102749.03
2023-02-13T06:23:41.109Z,102758.34
2023-02-13T06:26:09.042Z,102750.19
2023-02-13T06:28:35.998Z,102752.63
2023-02-13T06:31:03.003Z,102746.19
2023-02-13T06:33:29.834Z,102742.44
2023-02-13T06:35:56.498Z,102750.91
2023-02-13T06:38:24.251Z,102749.66
2023-02-13T06:40:51.113Z,102748.53
2023-02-13T06:43:18.094Z,102749.97
2023-02-13T06:45:46.815Z,102752.50
2023-02-13T06:48:14.114Z,102757.13
2023-02-13T06:50:40.840Z,102753.31
2023-02-13T06:53:07.458Z,102762.66
2023-02-13T06:55:34.121Z,102764.78
2023-02-13T06:58:00.769Z,102762.38
2023-02-13T07:00:27.502Z,102761.34
2023-02-13T07:02:54.231Z,102767.25
2023-02-13T07:05:20.830Z,102762.41
2023-02-13T07:07:47.442Z,102760.44
2023-02-13T07:10:14.648Z,102767.28
2023-02-13T07:12:41.822Z,102768.84
2023-02-13T07:15:09.162Z,102761.94
2023-02-13T07:17:36.406Z,102770.09
2023-02-13T07:20:04.569Z,102767.69
2023-02-13T07:22:32.738Z,102768.81
2023-02-13T07:25:00.001Z,102765.38
2023-02-13T07:27:29.201Z,102769.13
2023-02-13T07:29:58.724Z,102775.84
2023-02-13T07:32:25.738Z,102777.41
2023-02-13T07:35:01.674Z,102775.47
2023-02-13T07:37:30.733Z,102779.38
2023-02-13T07:39:57.465Z,102785.00
2023-02-13T07:42:24.306Z,102787.38
2023-02-13T07:44:50.858Z,102784.69
2023-02-13T07:47:19.790Z,102786.50
2023-02-13T07:49:46.777Z,102783.72
2023-02-13T07:52:13.598Z,102788.44
2023-02-13T07:54:47.039Z,102791.31
2023-02-13T07:57:17.013Z,102799.81
2023-02-13T07:59:43.762Z,102792.00
2023-02-13T08:02:14.878Z,102801.97
2023-02-13T08:04:46.067Z,102788.72
2023-02-13T08:07:14.220Z,102791.31
2023-02-13T08:09:59.563Z,102792.34
2023-02-13T08:12:26.217Z,102791.56
2023-02-13T08:14:53.625Z,102791.56
2023-02-13T08:17:20.335Z,102801.19
2023-02-13T08:19:47.057Z,102801.13
2023-02-13T08:22:13.734Z,102803.84
2023-02-13T08:24:40.653Z,102803.34
2023-02-13T08:27:07.337Z,102795.84
2023-02-13T08:29:34.510Z,102800.50
2023-02-13T08:32:01.148Z,102795.38
2023-02-13T08:34:27.702Z,102792.72
2023-02-13T08:36:54.374Z,102792.84
2023-02-13T08:39:21.432Z,102795.69
2023-02-13T08:41:47.968Z,102794.09
2023-02-13T08:44:14.487Z,102794.81
2023-02-13T08:46:41.130Z,102798.81
2023-02-13T08:49:07.680Z,102793.97
2023-02-13T08:51:34.380Z,102789.91
2023-02-13T08:54:01.010Z,102804.38
2023-02-13T08:56:27.683Z,102800.53
2023-02-13T08:58:54.961Z,102794.69
2023-02-13T09:01:23.999Z,102794.44
2023-02-13T09:03:50.533Z,102789.75
2023-02-13T09:06:17.132Z,102797.47
2023-02-13T09:08:43.821Z,102795.25
2023-02-13T09:11:10.519Z,102785.72
2023-02-13T09:13:37.224Z,102784.56
2023-02-13T09:16:06.861Z,102784.94
2023-02-13T09:18:35.102Z,102787.69
2023-02-13T09:21:07.838Z,102789.44
2023-02-13T09:23:37.421Z,102791.41
2023-02-13T09:26:06.964Z,102786.25
2023-02-13T09:28:35.631Z,102784.47
2023-02-13T09:31:10.480Z,102790.00
2023-02-13T09:33:37.700Z,102788.06
2023-02-13T09:36:06.098Z,102794.56
2023-02-13T09:38:33.564Z,102790.47
2023-02-13T09:41:05.396Z,102790.78
2023-02-13T09:43:41.023Z,102790.94
2023-02-13T09:46:38.278Z,102784.94
2023-02-13T09:49:18.691Z,102793.53
2023-02-13T09:51:54.026Z,102790.81
2023-02-13T09:54:21.102Z,102799.91
2023-02-13T09:57:27.978Z,102803.22
2023-02-13T10:00:19.587Z,102806.56
2023-02-13T10:02:58.338Z,102801.19
2023-02-13T10:05:46.717Z,102804.84
2023-02-13T10:08:37.989Z,102805.78
2023-02-13T10:11:25.774Z,102806.41
2023-02-13T10:14:10.476Z,102797.69
2023-02-13T10:17:10.905Z,102799.69
2023-02-13T10:19:44.478Z,102800.88
2023-02-13T10:22:15.952Z,102793.78
2023-02-13T10:24:51.715Z,102798.13
2023-02-13T10:27:25.801Z,102798.50
2023-02-13T10:30:09.101Z,102804.31
2023-02-13T10:33:11.288Z,102801.09
2023-02-13T10:35:39.251Z,102804.50
2023-02-13T10:38:18.641Z,102794.56
2023-02-13T10:41:23.558Z,102794.22
2023-02-13T10:44:10.788Z,102794.00
2023-02-13T10:46:55.862Z,102792.19
2023-02-13T10:49:35.795Z,102789.72
2023-02-13T10:52:17.920Z,102792.47
2023-02-13T10:54:47.914Z,102790.34
2023-02-13T10:57:24.620Z,102787.34
2023-02-13T10:59:57.386Z,102783.91
2023-02-13T11:02:29.762Z,102784.94
2023-02-13T11:05:11.427Z,102770.75
2023-02-13T11:07:39.676Z,102775.91
2023-02-13T11:10:18.284Z,102768.78
2023-02-13T11:12:45.690Z,102764.94
2023-02-13T11:15:32.768Z,102761.03
2023-02-13T11:18:11.809Z,102756.75
2023-02-13T11:20:44.407Z,102753.59
2023-02-13T11:23:32.343Z,102753.72
2023-02-13T11:26:28.325Z,102756.47
2023-02-13T11:28:57.693Z,102754.41
2023-02-13T11:31:31.548Z,102756.19
2023-02-13T11:34:17.302Z,102745.81
2023-02-13T11:36:44.159Z,102748.91
2023-02-13T11:39:22.519Z,102739.34
2023-02-13T11:41:50.877Z,102744.53
2023-02-13T11:44:26.248Z,102742.00
2023-02-13T11:46:54.202Z,102742.88
2023-02-13T11:49:35.103Z,102737.66
2023-02-13T11:52:05.294Z,102734.47
2023-02-13T11:54:36.725Z,102735.56
2023-02-13T11:57:21.875Z,102732.56
2023-02-13T11:59:51.392Z,102727.66
2023-02-13T12:02:21.002Z,102727.00
2023-02-13T12:04:50.194Z,102728.50
2023-02-13T12:07:24.775Z,102717.97
2023-02-13T12:09:58.569Z,102719.06
2023-02-13T12:12:32.855Z,102711.28
2023-02-13T12:15:03.657Z,102718.63
2023-02-13T12:17:32.478Z,102713.00
2023-02-13T12:20:00.259Z,102715.28
2023-02-13T12:22:45.200Z,102703.13
2023-02-13T12:25:25.842Z,102709.34
2023-02-13T12:28:12.679Z,102702.66
2023-02-13T12:31:00.031Z,102694.59
2023-02-13T12:33:59.352Z,102693.19
2023-02-13T12:36:45.044Z,102686.69
2023-02-13T12:39:17.893Z,102688.00
2023-02-13T12:42:04.794Z,102675.03
2023-02-13T12:44:43.178Z,102677.91
2023-02-13T12:47:23.840Z,102673.25
2023-02-13T12:50:28.666Z,102672.19
2023-02-13T12:53:23.250Z,102664.66
2023-02-13T12:56:40.892Z,102668.34
2023-02-13T12:59:25.667Z,102669.63
2023-02-13T13:02:11.567Z,102669.75
2023-02-13T13:04:47.951Z,102662.03
2023-02-13T13:07:23.575Z,102669.50
2023-02-13T13:09:55.566Z,102660.22
2023-02-13T13:12:33.042Z,102654.44
2023-02-13T13:15:23.624Z,102654.94
2023-02-13T13:18:14.085Z,102646.53
2023-02-13T13:21:00.042Z,102656.53
2023-02-13T13:23:50.116Z,102649.22
2023-02-13T13:26:21.251Z,102646.84
2023-02-13T13:28:52.586Z,102643.69
2023-02-13T13:31:21.202Z,102641.28
2023-02-13T13:33:48.284Z,102642.31
2023-02-13T13:36:33.202Z,102641.47
2023-02-13T13:39:36.831Z,102636.34
2023-02-13T13:42:13.353Z,102641.16
2023-02-13T13:45:28.547Z,102637.69
2023-02-13T13:48:06.208Z,102624.78
2023-02-13T13:50:37.594Z,102633.63
2023-02-13T13:53:09.038Z,102632.69
2023-02-13T13:55:48.444Z,102632.22
2023-02-13T13:58:40.750Z,102620.34
2023-02-13T14:01:29.640Z,102615.16
2023-02-13T14:04:04.641Z,102615.66
2023-02-13T14:06:43.302Z,102616.81
2023-02-13T14:09:43.464Z,102606.63
2023-02-13T14:12:37.165Z,102607.31
2023-02-13T14:15:04.130Z,102606.31
2023-02-13T14:18:01.279Z,102609.25
2023-02-13T14:20:33.732Z,102599.59
2023-02-13T14:23:33.871Z,102597.34
2023-02-13T14:26:11.044Z,102604.03
2023-02-13T14:28:39.746Z,102607.91
2023-02-13T14:31:25.049Z,102594.06
2023-02-13T14:34:10.639Z,102593.09
2023-02-13T14:36:46.689Z,102587.06
2023-02-13T14:39:26.717Z,102595.69
2023-02-13T14:41:56.464Z,102592.38
2023-02-13T14:44:33.844Z,102589.38
2023-02-13T14:47:05.171Z,102588.06
2023-02-13T14:49:36.676Z,102578.63
2023-02-13T14:52:07.312Z,102582.38
2023-02-13T14:54:42.094Z,102579.41
2023-02-13T14:57:20.017Z,102579.50
2023-02-13T14:59:50.245Z,102582.13
2023-02-13T15:02:26.385Z,102579.81
2023-02-13T15:05:02.295Z,102583.94
2023-02-13T15:07:40.023Z,102576.44
2023-02-13T15:10:31.946Z,102586.16
2023-02-13T15:13:00.748Z,102586.81
2023-02-13T15:15:31.990Z,102574.81
2023-02-13T15:18:07.643Z,102584.41
2023-02-13T15:20:37.584Z,102572.38
2023-02-13T15:23:09.430Z,102580.31
2023-02-13T15:25:41.003Z,102578.16
2023-02-13T15:28:16.972Z,102564.72
2023-02-13T15:30:53.927Z,102570.53
2023-02-13T15:33:22.913Z,102563.31
2023-02-13T15:36:01.440Z,102564.66
2023-02-13T15:38:34.534Z,102559.97
2023-02-13T15:41:12.106Z,102561.84
2023-02-13T15:43:48.307Z,102558.09
2023-02-13T15:46:20.710Z,102565.03
2023-02-13T15:48:47.872Z,102564.44
2023-02-13T15:51:25.266Z,102563.50
2023-02-13T15:54:00.588Z,102567.25
2023-02-13T15:56:27.536Z,102565.34
2023-02-13T15:58:55.909Z,102570.50
2023-02-13T16:01:23.277Z,102565.91
2023-02-13T16:03:54.103Z,102564.00
2023-02-13T16:06:24.930Z,102571.50
2023-02-13T16:08:57.633Z,102565.09
2023-02-13T16:11:24.492Z,102562.75
2023-02-13T16:14:03.311Z,102559.53
2023-02-13T16:16:44.075Z,102555.53
2023-02-13T16:19:36.028Z,102564.88
2023-02-13T16:22:31.095Z,102561.44
2023-02-13T16:25:28.838Z,102563.81
2023-02-13T16:27:58.936Z,102563.69
2023-02-13T16:30:35.851Z,102557.59
2023-02-13T16:33:15.043Z,102553.31
2023-02-13T16:35:49.008Z,102554.41
2023-02-13T16:38:27.626Z,102545.13
2023-02-13T16:40:55.773Z,102559.25
2023-02-13T16:43:51.582Z,102557.00
2023-02-13T16:46:22.769Z,102554.69
2023-02-13T16:49:01.456Z,102563.78
2023-02-13T16:51:54.105Z,102561.25
2023-02-13T16:55:02.305Z,102560.84
2023-02-13T16:57:34.461Z,102558.69
2023-02-13T17:00:22.630Z,102569.03
2023-02-13T17:02:50.836Z,102577.44
2023-02-13T17:05:27.708Z,102575.50
2023-02-13T17:08:01.289Z,102578.53
2023-02-13T17:10:37.990Z,102581.75
2023-02-13T17:13:13.303Z,102588.38
2023-02-13T17:15:45.224Z,102590.06
2023-02-13T17:18:12.427Z,102594.16
2023-02-13T17:20:43.167Z,102587.94
2023-02-13T17:23:20.701Z,102594.81
2023-02-13T17:25:51.213Z,102593.97
2023-02-13T17:28:26.452Z,102590.34
2023-02-13T17:30:56.573Z,102596.53
2023-02-13T17:33:26.338Z,102597.41
2023-02-13T17:35:53.416Z,102602.63
2023-02-13T17:38:20.594Z,102598.72
2023-02-13T17:40:47.745Z,102598.72
2023-02-13T17:43:17.042Z,102597.88
2023-02-13T17:45:44.027Z,102603.47
2023-02-13T17:48:10.682Z,102602.16
2023-02-13T17:50:38.172Z,102598.91
2023-02-13T17:53:07.582Z,102601.53
2023-02-13T17:55:35.356Z,102610.34
2023-02-13T17:58:02.417Z,102608.84
2023-02-13T18:00:32.655Z,102610.53
2023-02-13T18:03:00.519Z,102606.88
2023-02-13T18:05:28.705Z,102610.34
2023-02-13T18:07:55.772Z,102603.47
2023-02-13T18:10:26.030Z,102604.75
2023-02-13T18:12:53.952Z,102600.03
2023-02-13T18:15:21.382Z,102603.25
2023-02-13T18:17:48.266Z,102606.03
2023-02-13T18:20:18.038Z,102605.53
2023-02-13T18:22:44.709Z,102601.38
2023-02-13T18:25:11.522Z,102603.56
2023-02-13T18:27:38.358Z,102604.41
2023-02-13T18:30:06.456Z,102603.81
2023-02-13T18:32:33.684Z,102601.75
2023-02-13T18:35:00.994Z,102594.69
2023-02-13T18:37:29.408Z,102600.16
2023-02-13T18:39:56.905Z,102595.03
2023-02-13T18:42:23.569Z,102595.03
2023-02-13T18:44:50.304Z,102591.56
2023-02-13T18:47:17.464Z,102593.88
2023-02-13T18:49:46.251Z,102595.63
2023-02-13T18:52:13.336Z,102599.19
2023-02-13T18:54:39.938Z,102589.44
2023-02-13T18:57:06.948Z,102589.44
2023-02-13T18:59:33.607Z,102584.78
2023-02-13T19:02:02.110Z,102585.84
2023-02-13T19:04:29.761Z,102590.16
2023-02-13T19:06:56.457Z,102587.31
2023-02-13T19:09:23.018Z,102593.25
2023-02-13T19:11:49.809Z,102592.53
2023-02-13T19:14:16.437Z,102593.50
2023-02-13T19:16:43.166Z,102594.31
2023-02-13T19:19:10.365Z,102590.25
2023-02-13T19:21:38.407Z,102591.19
2023-02-13T19:24:08.620Z,102595.75
2023-02-13T19:26:35.449Z,102588.34
2023-02-13T19:29:02.054Z,102590.59
2023-02-13T19:31:30.701Z,102593.81
2023-02-13T19:33:57.478Z,102595.66
2023-02-13T19:36:26.321Z,102594.00
2023-02-13T19:38:55.321Z,102593.97
2023-02-13T19:41:21.909Z,102598.16
2023-02-13T19:43:53.170Z,102597.16
2023-02-13T19:46:22.910Z,102603.38
2023-02-13T19:48:50.524Z,102598.97
2023-02-13T19:51:19.943Z,102597.53
2023-02-13T19:53:47.097Z,102601.09
2023-02-13T19:56:14.617Z,102603.91
2023-02-13T19:58:42.446Z,102601.00
2023-02-13T20:01:11.185Z,102590.09
2023-02-13T20:03:37.821Z,102595.97
2023-02-13T20:06:09.726Z,102606.16
2023-02-13T20:08:36.752Z,102600.56
2023-02-13T20:11:05.863Z,102600.97
2023-02-13T20:13:32.519Z,102601.22
2023-02-13T20:15:59.187Z,102596.41
2023-02-13T20:18:25.940Z,102585.41
2023-02-13T20:20:52.468Z,102594.84
2023-02-13T20:23:19.993Z,102595.41
2023-02-13T20:25:46.589Z,102597.13
2023-02-13T20:28:13.339Z,102588.78
2023-02-13T20:30:44.368Z,102591.47
2023-02-13T20:33:11.127Z,102587.38
2023-02-13T20:35:37.612Z,102583.09
2023-02-13T20:38:04.643Z,102594.84
2023-02-13T20:40:31.240Z,102579.13
2023-02-13T20:42:58.029Z,102577.22
2023-02-13T20:45:25.124Z,102584.59
2023-02-13T20:47:51.788Z,102577.13
2023-02-13T20:50:18.762Z,102578.00
2023-02-13T20:52:45.384Z,102572.78
2023-02-13T20:55:11.925Z,102571.06
2023-02-13T20:57:38.845Z,102576.00
2023-02-13T21:00:07.232Z,102571.81
2023-02-13T21:02:33.889Z,102568.25
2023-02-13T21:05:00.764Z,102571.63
2023-02-13T21:07:27.348Z,102569.69
2023-02-13T21:09:53.964Z,102580.56
2023-02-13T21:12:20.709Z,102583.19
2023-02-13T21:14:47.285Z,102587.34
2023-02-13T21:17:13.945Z,102587.06
2023-02-13T21:19:41.681Z,102597.06
2023-02-13T21:22:12.041Z,102590.69
2023-02-13T21:24:40.996Z,102589.34
2023-02-13T21:27:08.769Z,102598.53
2023-02-13T21:29:35.939Z,102592.63
2023-02-13T21:32:03.277Z,102588.13
2023-02-13T21:34:30.386Z,102588.38
2023-02-13T21:36:57.012Z,102586.56
2023-02-13T21:39:23.738Z,102586.09
2023-02-13T21:41:50.430Z,102582.81
2023-02-13T21:44:17.128Z,102590.13
2023-02-13T21:46:45.160Z,102585.91
2023-02-13T21:49:14.737Z,102587.44
2023-02-13T21:51:42.006Z,102581.03
2023-02-13T21:54:09.508Z,102581.63
2023-02-13T21:56:39.008Z,102573.19
2023-02-13T21:59:06.234Z,102571.06
2023-02-13T22:01:44.767Z,102565.91
2023-02-13T22:04:11.449Z,102573.84
2023-02-13T22:06:39.777Z,102571.25
2023-02-13T22:09:09.478Z,102574.97
2023-02-13T22:11:36.788Z,102572.25
2023-02-13T22:14:05.266Z,102575.84
2023-02-13T22:16:37.278Z,102575.81
2023-02-13T22:19:05.391Z,102578.75
2023-02-13T22:21:33.204Z,102581.09
2023-02-13T22:24:00.605Z,102579.00
2023-02-13T22:26:45.370Z,102580.06
2023-02-13T22:29:14.678Z,102575.69
2023-02-13T22:31:41.658Z,102586.47
2023-02-13T22:34:13.242Z,102583.53
2023-02-13T22:36:41.046Z,102577.66
2023-02-13T22:39:09.334Z,102579.75
2023-02-13T22:41:36.579Z,102585.59
2023-02-13T22:44:03.482Z,102584.28
2023-02-13T22:46:32.248Z,102573.88
2023-02-13T22:48:59.630Z,102584.66
2023-02-13T22:51:32.603Z,102585.56
2023-02-13T22:53:59.894Z,102591.72
2023-02-13T22:56:28.511Z,102586.09
2023-02-13T22:58:55.189Z,102576.44
2023-02-13T23:01:23.891Z,102576.63
2023-02-13T23:03:50.702Z,102575.53
2023-02-13T23:06:18.590Z,102582.94
2023-02-13T23:08:48.855Z,102577.75
2023-02-13T23:11:35.558Z,102575.56
2023-02-13T23:14:02.904Z,102577.50
2023-02-13T23:16:52.769Z,102580.03
2023-02-13T23:19:20.730Z,102576.03
2023-02-13T23:21:47.338Z,102579.22
2023-02-13T23:24:13.988Z,102584.59
2023-02-13T23:26:40.511Z,102582.06
2023-02-13T23:29:07.050Z,102575.41
2023-02-13T23:31:33.690Z,102577.72
2023-02-13T23:34:00.311Z,102579.22
2023-02-13T23:36:26.831Z,102574.84
2023-02-13T23:38:53.430Z,102582.09
2023-02-13T23:41:20.236Z,102576.56
2023-02-13T23:43:46.807Z,102577.28
2023-02-13T23:46:13.505Z,102577.28
2023-02-13T23:48:40.237Z,102576.25
2023-02-13T23:51:06.806Z,102575.13
2023-02-13T23:53:36.776Z,102566.19
2023-02-13T23:56:04.447Z,102571.91
2023-02-13T23:58:31.143Z,102562.25
